Time;durP1;ratioP1;P1;durP2;ratioP2;P2;SDS_P1;SDS_P2;PMS_P1;PMS_P2;Temp;Humidity;BMP_temperature;BMP_pressure;BME280_temperature;BME280_humidity;BME280_pressure;Samples;Min_cycle;Max_cycle;Signal;HPM_P1;HPM_P2
2021/12/01 00:02:01;;;;;;;7.10;4.40;;;;;;;2.69;55.43;99437.09;4894957;29;20426;-39
2021/12/01 00:04:27;;;;;;;7.53;4.25;;;;;;;2.60;53.22;99442.50;4894866;29;20141;-38
2021/12/01 00:06:52;;;;;;;6.65;4.20;;;;;;;2.53;52.61;99437.03;4895079;29;20031;-38
2021/12/01 00:09:18;;;;;;;6.45;3.58;;;;;;;2.26;53.50;99401.31;4895043;29;20366;-38
2021/12/01 00:11:43;;;;;;;8.38;4.10;;;;;;;2.58;52.59;99432.13;4895290;29;20076;-39
2021/12/01 00:14:09;;;;;;;6.47;4.00;;;;;;;2.62;53.60;99422.94;4895122;29;20088;-39
2021/12/01 00:16:34;;;;;;;5.60;3.72;;;;;;;2.94;53.08;99429.28;4895716;29;20028;-39
2021/12/01 00:19:00;;;;;;;6.07;3.90;;;;;;;3.30;51.95;99423.72;4895572;29;20032;-38
2021/12/01 00:21:25;;;;;;;5.78;3.80;;;;;;;3.25;53.36;99424.19;4895454;29;20481;-38
2021/12/01 00:23:51;;;;;;;6.22;3.53;;;;;;;3.25;52.03;99423.38;4895499;29;20032;-38
2021/12/01 00:26:16;;;;;;;7.10;4.30;;;;;;;3.06;53.56;99424.53;4895515;29;20036;-39
2021/12/01 00:28:42;;;;;;;7.43;4.00;;;;;;;2.90;53.53;99430.59;4895296;29;20060;-39
2021/12/01 00:31:07;;;;;;;7.38;4.05;;;;;;;3.10;52.79;99434.56;4894915;29;20017;-38
2021/12/01 00:33:33;;;;;;;6.45;3.88;;;;;;;2.89;52.16;99429.78;4878164;29;20115;-37
2021/12/01 00:35:58;;;;;;;6.13;3.75;;;;;;;2.77;53.71;99424.97;4878234;29;20123;-38
2021/12/01 00:38:24;;;;;;;5.28;3.35;;;;;;;2.34;52.90;99432.84;4895113;29;20041;-39
2021/12/01 00:40:50;;;;;;;4.85;3.42;;;;;;;2.53;53.34;99423.91;4895051;29;20036;-38
2021/12/01 00:43:17;;;;;;;5.90;3.42;;;;;;;2.64;52.99;99425.44;4895223;29;20076;-38
2021/12/01 00:45:50;;;;;;;5.65;3.15;;;;;;;2.48;53.77;99431.47;4895162;29;20095;-37
2021/12/01 00:48:19;;;;;;;5.53;3.17;;;;;;;2.44;53.42;99417.00;4895166;29;20032;-38
2021/12/01 00:50:45;;;;;;;4.38;3.00;;;;;;;2.22;53.85;99431.50;4894930;29;20024;-38
2021/12/01 00:53:11;;;;;;;4.40;3.00;;;;;;;2.43;52.56;99415.34;4895176;29;20036;-38
2021/12/01 00:55:37;;;;;;;4.65;3.10;;;;;;;2.66;52.08;99415.56;4895090;29;20033;-39
2021/12/01 00:58:03;;;;;;;4.63;2.95;;;;;;;2.72;51.36;99418.41;4894991;29;20493;-39
2021/12/01 01:00:28;;;;;;;4.72;3.33;;;;;;;2.84;51.70;99389.19;4894923;29;20107;-38
2021/12/01 01:02:56;;;;;;;5.53;3.60;;;;;;;3.30;52.91;99427.16;4894930;29;20370;-38
2021/12/01 01:05:21;;;;;;;4.57;3.20;;;;;;;3.16;50.45;99419.94;4895082;29;20357;-38
2021/12/01 01:07:47;;;;;;;4.25;3.00;;;;;;;2.92;51.03;99415.47;4895034;29;20044;-38
2021/12/01 01:18:37;;;;;;;4.88;3.38;;;;;;;3.27;51.67;99408.25;4895036;29;20100;-39
2021/12/01 01:21:02;;;;;;;4.88;3.50;;;;;;;3.26;50.54;99406.63;4894688;29;20028;-39
2021/12/01 01:23:29;;;;;;;5.30;3.38;;;;;;;3.20;51.07;99389.72;4894654;29;20166;-38
2021/12/01 01:25:56;;;;;;;5.72;3.45;;;;;;;3.06;50.44;99385.09;4895783;29;20141;-38
2021/12/01 01:28:21;;;;;;;6.75;3.67;;;;;;;3.11;52.70;99383.59;4898127;29;20032;-39
2021/12/01 01:30:47;;;;;;;5.35;3.03;;;;;;;3.15;50.56;99370.16;4898475;29;20489;-38
2021/12/01 01:33:13;;;;;;;6.13;3.70;;;;;;;3.15;52.38;99376.22;4898308;29;20068;-38
2021/12/01 01:35:38;;;;;;;5.50;3.50;;;;;;;3.11;52.91;99372.28;4898032;29;20060;-38
2021/12/01 01:38:03;;;;;;;4.25;3.15;;;;;;;3.15;50.83;99354.38;4898201;29;20442;-38
2021/12/01 01:40:29;;;;;;;4.80;3.30;;;;;;;3.01;52.92;99324.28;4898243;29;20116;-38
2021/12/01 01:42:54;;;;;;;4.65;3.33;;;;;;;3.21;50.47;99327.41;4881359;29;20032;-39
2021/12/01 01:45:20;;;;;;;6.78;3.58;;;;;;;3.04;51.89;99329.22;4898211;29;20096;-38
2021/12/01 01:47:52;;;;;;;4.50;3.40;;;;;;;3.02;53.82;99331.19;4898047;29;20080;-38
2021/12/01 01:52:43;;;;;;;7.75;3.80;;;;;;;2.67;53.47;99330.53;4881132;29;20035;-38
2021/12/01 01:55:08;;;;;;;5.00;3.50;;;;;;;2.75;54.18;99327.91;4897779;29;20431;-38
2021/12/01 01:57:34;;;;;;;5.05;3.50;;;;;;;2.73;53.88;99338.56;4897676;29;20055;-37
2021/12/01 01:59:59;;;;;;;5.70;3.78;;;;;;;2.96;54.39;99332.66;4897566;29;20135;-38
2021/12/01 02:02:25;;;;;;;6.70;3.83;;;;;;;2.68;52.71;99321.66;4865372;29;20149;-39
2021/12/01 02:04:51;;;;;;;5.70;3.88;;;;;;;2.76;53.83;99331.34;4897543;29;20374;-38
2021/12/01 02:07:16;;;;;;;5.22;3.72;;;;;;;2.45;55.41;99290.75;4897646;29;20043;-38
2021/12/01 02:09:42;;;;;;;7.65;3.90;;;;;;;2.71;56.03;99327.41;4897308;29;20111;-38
2021/12/01 02:12:08;;;;;;;6.72;4.25;;;;;;;2.74;54.38;99326.25;4864583;29;20033;-38
2021/12/01 02:14:33;;;;;;;7.35;4.45;;;;;;;2.64;52.98;99313.25;4897756;29;20412;-38
2021/12/01 02:16:59;;;;;;;6.90;4.13;;;;;;;2.52;53.74;99325.91;4897499;29;20029;-38
2021/12/01 02:19:25;;;;;;;6.95;3.88;;;;;;;2.78;53.58;99345.97;4897190;29;20037;-38
2021/12/01 02:21:50;;;;;;;6.90;4.07;;;;;;;2.68;54.91;99342.66;4897301;29;20100;-38
2021/12/01 02:24:19;;;;;;;9.30;4.30;;;;;;;2.39;55.86;99351.81;4897286;29;20548;-38
2021/12/01 02:26:47;;;;;;;8.63;4.37;;;;;;;2.09;55.13;99356.63;4897602;29;20140;-38
2021/12/01 02:29:14;;;;;;;5.97;4.18;;;;;;;2.13;54.07;99362.38;4897025;29;20501;-38
2021/12/01 02:31:40;;;;;;;7.57;4.32;;;;;;;1.98;55.04;99353.47;4896927;29;20507;-51
2021/12/01 02:34:08;;;;;;;7.32;4.45;;;;;;;1.98;57.13;99340.34;4896576;29;20124;-49
2021/12/01 02:36:34;;;;;;;6.13;4.25;;;;;;;1.85;55.46;99348.66;4896872;29;20092;-51
2021/12/01 02:39:01;;;;;;;7.88;4.47;;;;;;;2.11;56.28;99348.59;4896273;29;20691;-51
2021/12/01 02:41:30;;;;;;;6.55;4.00;;;;;;;2.15;54.25;99342.88;4896829;29;20490;-52
2021/12/01 02:43:56;;;;;;;7.20;4.07;;;;;;;2.17;54.01;99331.38;4896682;29;20473;-50
2021/12/01 02:46:22;;;;;;;6.78;4.10;;;;;;;2.24;56.01;99346.34;4896690;29;20050;-50
2021/12/01 02:48:47;;;;;;;5.32;3.90;;;;;;;2.20;55.91;99337.13;4896706;29;20367;-50
2021/12/01 02:51:13;;;;;;;8.05;4.18;;;;;;;2.28;54.82;99352.91;4896679;29;20366;-52
2021/12/01 02:53:40;;;;;;;8.02;4.45;;;;;;;2.19;53.70;99355.66;4896423;29;20028;-53
2021/12/01 02:56:05;;;;;;;7.13;4.22;;;;;;;2.30;54.32;99345.72;4896476;29;20517;-50
2021/12/01 02:58:32;;;;;;;6.85;4.30;;;;;;;2.48;57.59;99358.72;4896572;29;20028;-49
2021/12/01 03:01:00;;;;;;;7.68;4.00;;;;;;;2.08;55.87;99341.03;4896401;29;20040;-50
2021/12/01 03:03:26;;;;;;;8.93;4.10;;;;;;;2.12;55.29;99337.13;4896591;29;20028;-51
2021/12/01 03:05:51;;;;;;;8.07;4.70;;;;;;;2.15;55.72;99349.91;4896512;29;20391;-53
2021/12/01 03:08:18;;;;;;;8.85;4.70;;;;;;;2.11;53.83;99338.09;4896345;29;20460;-50
2021/12/01 03:10:48;;;;;;;6.93;4.30;;;;;;;2.05;54.13;99336.91;4896716;29;20425;-51
2021/12/01 03:13:14;;;;;;;5.15;3.65;;;;;;;2.30;53.83;99348.34;4896603;29;20133;-48
2021/12/01 03:15:40;;;;;;;6.18;3.60;;;;;;;2.13;53.46;99349.25;4896388;29;20028;-51
2021/12/01 03:18:05;;;;;;;5.25;3.22;;;;;;;2.17;53.05;99345.34;4879369;29;20119;-52
2021/12/01 03:20:31;;;;;;;5.95;3.20;;;;;;;2.10;51.53;99331.22;4896574;29;20020;-50
2021/12/01 03:22:57;;;;;;;5.13;3.00;;;;;;;2.20;51.32;99321.38;4896310;29;20060;-50
2021/12/01 03:25:23;;;;;;;4.40;2.92;;;;;;;2.30;50.71;99323.88;4896189;29;20095;-50
2021/12/01 03:27:48;;;;;;;4.25;2.85;;;;;;;2.47;49.93;99328.16;4896216;29;20032;-51
2021/12/01 03:30:14;;;;;;;3.60;2.80;;;;;;;2.81;50.43;99326.44;4896133;29;20401;-52
2021/12/01 03:32:40;;;;;;;5.45;3.00;;;;;;;2.82;49.04;99323.63;4879584;29;20124;-51
2021/12/01 03:35:11;;;;;;;4.15;2.88;;;;;;;3.01;50.83;99337.41;4896014;29;20428;-51
2021/12/01 03:37:37;;;;;;;4.22;3.00;;;;;;;2.98;50.70;99349.09;4896103;29;20048;-52
2021/12/01 03:40:03;;;;;;;4.30;2.67;;;;;;;2.80;49.23;99346.63;4896068;29;20052;-51
2021/12/01 03:42:29;;;;;;;4.45;2.80;;;;;;;2.61;50.43;99313.59;4881030;29;20103;-51
2021/12/01 03:44:55;;;;;;;5.25;2.97;;;;;;;2.74;48.91;99348.09;4896133;29;20695;-53
2021/12/01 03:47:22;;;;;;;3.65;2.47;;;;;;;2.79;48.93;99341.53;4895617;29;20032;-51
2021/12/01 03:49:47;;;;;;;3.63;2.63;;;;;;;3.09;48.91;99348.78;4895000;29;20028;-49
2021/12/01 03:52:15;;;;;;;3.55;2.50;;;;;;;3.24;48.58;99342.88;4895781;29;20039;-49
2021/12/01 03:54:41;;;;;;;3.38;2.50;;;;;;;3.48;48.28;99336.72;4895785;29;20040;-51
2021/12/01 03:57:06;;;;;;;3.67;2.60;;;;;;;3.61;49.18;99347.56;4895693;29;20183;-49
2021/12/01 03:59:32;;;;;;;5.55;2.90;;;;;;;3.63;47.43;99355.28;4895444;29;20504;-52
2021/12/01 04:01:57;;;;;;;4.53;2.60;;;;;;;3.51;47.62;99349.56;4895632;29;20140;-52
2021/12/01 04:04:23;;;;;;;3.92;2.65;;;;;;;3.73;47.43;99350.66;4895685;29;20088;-49
2021/12/01 04:06:48;;;;;;;4.15;2.90;;;;;;;3.90;46.31;99356.69;4894313;29;20044;-54
2021/12/01 04:09:14;;;;;;;5.20;3.10;;;;;;;3.66;47.53;99360.22;4895429;29;20032;-52
2021/12/01 04:11:39;;;;;;;4.38;3.00;;;;;;;3.64;47.18;99368.28;4895461;29;20033;-52
2021/12/01 04:14:05;;;;;;;6.75;3.05;;;;;;;3.74;46.77;99360.19;4893934;29;20466;-50
2021/12/01 04:16:30;;;;;;;6.20;3.70;;;;;;;3.79;47.12;99370.19;4895368;29;20036;-53
2021/12/01 04:18:56;;;;;;;6.15;3.75;;;;;;;3.77;47.70;99364.28;4895296;29;20080;-52
2021/12/01 04:21:24;;;;;;;6.05;3.60;;;;;;;3.71;47.89;99357.88;4878521;29;20036;-51
2021/12/01 04:23:49;;;;;;;5.22;3.50;;;;;;;3.81;47.65;99363.81;4895494;29;20052;-49
2021/12/01 04:26:19;;;;;;;5.53;3.60;;;;;;;3.57;49.69;99363.84;4894957;29;20421;-50
2021/12/01 04:28:44;;;;;;;6.50;3.80;;;;;;;3.40;49.18;99366.50;4894942;29;20040;-48
2021/12/01 04:31:10;;;;;;;5.57;3.60;;;;;;;3.50;49.52;99361.91;4895090;29;20058;-50
2021/12/01 04:33:35;;;;;;;5.75;3.60;;;;;;;3.47;49.47;99366.66;4894988;29;20366;-49
2021/12/01 04:36:01;;;;;;;5.28;3.35;;;;;;;3.33;49.99;99373.41;4894817;29;20060;-49
2021/12/01 04:38:26;;;;;;;6.10;3.42;;;;;;;3.49;53.26;99362.88;4895218;29;20029;-51
2021/12/01 04:40:52;;;;;;;5.47;3.40;;;;;;;3.65;51.32;99362.00;4895026;29;20040;-50
2021/12/01 04:43:17;;;;;;;5.88;3.33;;;;;;;3.71;50.04;99364.00;4894939;29;20043;-52
2021/12/01 04:45:45;;;;;;;8.57;3.50;;;;;;;3.82;49.58;99352.25;4895544;29;20047;-49
2021/12/01 04:48:10;;;;;;;6.20;3.53;;;;;;;3.57;49.68;99358.59;4895078;29;20029;-51
2021/12/01 04:50:36;;;;;;;7.07;4.00;;;;;;;4.78;71.23;99366.16;4894820;29;20422;-49
2021/12/01 04:53:01;;;;;;;6.15;3.75;;;;;;;4.88;47.48;99350.09;4895000;29;20458;-51
2021/12/01 04:55:27;;;;;;;7.95;3.92;;;;;;;5.14;49.16;99352.38;4894898;29;20116;-52
2021/12/01 04:57:53;;;;;;;5.70;3.45;;;;;;;4.56;49.61;99348.50;4894850;29;20032;-49
2021/12/01 05:00:22;;;;;;;8.45;4.15;;;;;;;4.24;49.51;99359.00;4878708;29;20032;-52
2021/12/01 05:02:48;;;;;;;6.97;4.75;;;;;;;4.02;48.70;99363.25;4901100;29;20032;-51
2021/12/01 05:05:13;;;;;;;8.52;4.97;;;;;;;4.08;51.28;99353.84;4900286;29;20059;-52
2021/12/01 05:07:39;;;;;;;14.68;9.05;;;;;;;3.56;50.71;99368.31;4899516;29;20035;-51
2021/12/01 05:10:05;;;;;;;8.10;5.07;;;;;;;3.45;51.21;99356.31;4897990;29;20096;-51
2021/12/01 05:12:30;;;;;;;7.53;4.43;;;;;;;3.30;51.11;99347.44;4899642;29;20029;-52
2021/12/01 05:14:56;;;;;;;10.48;5.20;;;;;;;3.26;50.74;99367.19;4900184;29;20028;-50
2021/12/01 05:17:21;;;;;;;10.65;5.00;;;;;;;3.16;51.79;99361.25;4898144;29;20045;-50
2021/12/01 05:19:47;;;;;;;8.45;4.43;;;;;;;3.13;51.29;99368.50;4900291;29;20025;-49
2021/12/01 05:22:13;;;;;;;9.18;4.40;;;;;;;2.88;52.37;99367.66;4882961;29;20047;-52
2021/12/01 05:24:39;;;;;;;7.00;4.22;;;;;;;3.04;51.18;99366.84;4899763;29;20029;-50
2021/12/01 05:27:04;;;;;;;5.28;3.50;;;;;;;2.95;53.02;99357.31;4899550;29;20095;-52
2021/12/01 05:29:30;;;;;;;7.88;4.20;;;;;;;3.03;52.70;99357.31;4894140;29;20092;-50
2021/12/01 05:31:56;;;;;;;7.53;3.80;;;;;;;3.21;51.48;99359.78;4879285;29;20149;-49
2021/12/01 05:34:21;;;;;;;5.28;3.50;;;;;;;2.72;52.19;99355.34;4898357;29;20482;-51
2021/12/01 05:36:47;;;;;;;6.13;3.78;;;;;;;2.63;52.15;99358.94;4899223;29;20120;-50
2021/12/01 05:39:12;;;;;;;6.90;3.50;;;;;;;2.86;51.63;99356.50;4898072;29;20104;-52
2021/12/01 05:41:38;;;;;;;8.68;3.92;;;;;;;2.66;52.05;99353.31;4898230;29;20115;-51
2021/12/01 05:44:04;;;;;;;8.68;3.97;;;;;;;2.76;52.10;99358.47;4897687;29;20588;-51
2021/12/01 05:46:29;;;;;;;8.90;3.85;;;;;;;2.71;52.50;99358.13;4898191;29;20108;-48
2021/12/01 05:48:55;;;;;;;8.32;4.75;;;;;;;2.84;52.59;99361.09;4898484;29;20461;-52
2021/12/01 05:51:20;;;;;;;8.38;3.80;;;;;;;3.36;61.45;99333.63;4897406;29;20043;-51
2021/12/01 05:53:47;;;;;;;6.60;3.70;;;;;;;4.69;55.54;99375.91;4896982;29;20024;-49
2021/12/01 05:56:13;;;;;;;7.43;3.65;;;;;;;5.59;53.92;99366.44;4897670;29;20032;-52
2021/12/01 05:58:38;;;;;;;6.10;3.90;;;;;;;5.94;45.81;99381.78;4881816;29;20025;-48
2021/12/01 06:01:04;;;;;;;9.63;5.38;;;;;;;5.34;45.08;99370.34;4899970;29;20055;-51
2021/12/01 06:03:30;;;;;;;15.10;6.85;;;;;;;5.02;45.34;99398.59;4900007;29;20088;-50
2021/12/01 06:05:55;;;;;;;7.63;3.70;;;;;;;5.05;45.71;99388.53;4899898;29;20100;-53
2021/12/01 06:08:21;;;;;;;5.55;3.42;;;;;;;5.49;45.01;99389.66;4899788;29;20500;-52
2021/12/01 06:10:46;;;;;;;5.60;3.22;;;;;;;5.66;43.85;99396.41;4899662;29;20036;-51
2021/12/01 06:13:16;;;;;;;5.30;3.28;;;;;;;5.40;44.38;99383.63;4896813;29;20465;-52
2021/12/01 06:15:41;;;;;;;5.80;3.30;;;;;;;5.13;45.10;99387.66;4880100;29;20528;-50
2021/12/01 06:18:07;;;;;;;4.22;2.83;;;;;;;5.12;45.34;99385.19;4896844;29;20025;-52
2021/12/01 06:20:32;;;;;;;6.82;2.90;;;;;;;5.40;44.46;99396.00;4896621;29;20060;-53
2021/12/01 06:22:58;;;;;;;5.95;3.22;;;;;;;5.60;43.90;99402.44;4897140;29;20135;-52
2021/12/01 06:25:23;;;;;;;6.20;3.50;;;;;;;5.62;43.81;99408.34;4879721;29;20051;-52
2021/12/01 06:27:49;;;;;;;4.85;3.00;;;;;;;5.35;43.62;99404.47;4879198;29;20417;-53
2021/12/01 06:30:14;;;;;;;4.15;2.78;;;;;;;5.42;43.30;99408.00;4895969;29;20032;-51
2021/12/01 06:32:40;;;;;;;4.22;2.60;;;;;;;5.52;44.22;99412.22;4896291;29;20512;-52
2021/12/01 06:35:06;;;;;;;6.20;3.20;;;;;;;5.82;43.60;99403.34;4896041;29;20088;-51
2021/12/01 06:37:31;;;;;;;4.57;2.70;;;;;;;6.00;42.43;99408.31;4896382;29;20405;-50
2021/12/01 06:39:57;;;;;;;5.10;2.72;;;;;;;6.86;41.53;99397.16;4896097;29;20377;-52
2021/12/01 06:42:22;;;;;;;6.07;3.03;;;;;;;6.90;41.10;99413.47;4896333;29;20041;-50
2021/12/01 06:44:48;;;;;;;6.82;3.17;;;;;;;6.67;41.23;99418.94;4896579;29;20495;-49
2021/12/01 06:47:14;;;;;;;7.47;4.03;;;;;;;6.45;40.98;99426.78;4896070;29;20083;-52
2021/12/01 06:49:44;;;;;;;22.73;9.50;;;;;;;6.58;40.99;99426.13;4896013;29;20534;-52
2021/12/01 06:52:10;;;;;;;6.07;2.72;;;;;;;6.77;40.27;99436.13;4895646;29;20036;-49
2021/12/01 06:54:35;;;;;;;10.23;3.10;;;;;;;7.03;39.82;99437.44;4895582;29;20029;-52
2021/12/01 06:57:01;;;;;;;5.47;2.75;;;;;;;8.08;38.12;99433.19;4895737;29;20457;-51
2021/12/01 06:59:26;;;;;;;3.40;2.28;;;;;;;8.68;36.70;99436.19;4895534;29;20032;-49
2021/12/01 07:01:51;;;;;;;4.85;2.47;;;;;;;8.80;36.13;99437.22;4896045;29;20096;-49
2021/12/01 07:04:17;;;;;;;9.48;6.05;;;;;;;8.90;36.63;99452.78;4895732;29;20048;-50
2021/12/01 07:06:42;;;;;;;7.15;4.60;;;;;;;8.35;36.81;99458.00;4895965;29;20040;-50
2021/12/01 07:09:11;;;;;;;7.40;2.58;;;;;;;8.30;37.69;99460.47;4895221;29;20036;-51
2021/12/01 07:11:36;;;;;;;6.60;2.70;;;;;;;7.66;39.43;99448.19;4895522;29;20125;-51
2021/12/01 07:14:02;;;;;;;4.32;2.70;;;;;;;7.01;38.90;99434.97;4895742;29;20100;-50
2021/12/01 07:16:29;;;;;;;5.43;3.42;;;;;;;7.42;39.16;99438.81;4895753;29;20113;-51
2021/12/01 07:18:55;;;;;;;4.45;2.42;;;;;;;7.84;37.95;99442.41;4895912;29;20190;-51
2021/12/01 07:21:20;;;;;;;3.50;2.30;;;;;;;7.64;38.54;99440.44;4895902;29;20047;-53
2021/12/01 07:23:46;;;;;;;3.83;2.40;;;;;;;7.50;38.30;99432.56;4894771;29;20438;-52
2021/12/01 07:26:11;;;;;;;3.58;2.40;;;;;;;7.61;38.64;99427.56;4895144;29;20052;-53
2021/12/01 07:28:36;;;;;;;5.18;2.70;;;;;;;7.52;39.17;99433.19;4895196;29;20485;-53
2021/12/01 07:31:02;;;;;;;5.80;2.50;;;;;;;7.30;39.75;99429.75;4895119;29;20083;-52
2021/12/01 07:33:28;;;;;;;3.00;2.15;;;;;;;7.38;39.20;99438.38;4878606;29;20039;-54
2021/12/01 07:35:53;;;;;;;4.90;2.75;;;;;;;7.55;39.27;99443.41;4895288;29;20107;-50
2021/12/01 07:38:18;;;;;;;4.72;2.80;;;;;;;7.42;38.94;99444.09;4894913;29;20028;-50
2021/12/01 07:40:44;;;;;;;4.40;2.70;;;;;;;7.48;39.55;99450.47;4895313;29;20107;-50
2021/12/01 07:43:09;;;;;;;3.95;2.17;;;;;;;7.86;38.40;99436.91;4895611;29;20039;-50
2021/12/01 07:45:35;;;;;;;4.85;2.40;;;;;;;8.52;38.27;99429.38;4895434;29;20060;-50
2021/12/01 07:48:00;;;;;;;3.63;2.05;;;;;;;8.88;35.79;99433.59;4895669;29;20148;-50
2021/12/01 07:50:26;;;;;;;3.25;1.92;;;;;;;8.54;37.00;99424.69;4894692;29;20052;-52
2021/12/01 07:52:51;;;;;;;4.03;2.28;;;;;;;8.46;37.50;99424.84;4895051;29;20409;-48
2021/12/01 07:55:18;;;;;;;7.60;4.15;;;;;;;8.98;36.89;99419.94;4894635;29;20032;-51
2021/12/01 07:57:45;;;;;;;15.02;6.70;;;;;;;9.22;36.50;99431.00;4894749;29;20029;-49
2021/12/01 08:00:11;;;;;;;2.40;1.83;;;;;;;9.32;36.44;99434.88;4894060;29;20059;-49
2021/12/01 08:02:36;;;;;;;3.80;2.35;;;;;;;8.72;37.40;99416.19;4895092;29;20030;-51
2021/12/01 08:05:03;;;;;;;4.25;2.03;;;;;;;9.62;36.61;99420.41;4878153;29;20020;-51
2021/12/01 08:07:33;;;;;;;4.35;2.20;;;;;;;9.70;36.09;99407.72;4894852;29;20036;-52
2021/12/01 08:09:58;;;;;;;15.02;8.15;;;;;;;9.81;36.64;99410.78;4894927;29;20481;-50
2021/12/01 08:12:24;;;;;;;6.57;3.60;;;;;;;10.10;36.03;99401.53;4894968;29;20024;-50
2021/12/01 08:14:49;;;;;;;4.55;2.70;;;;;;;9.84;36.59;99397.88;4890642;29;20359;-49
2021/12/01 08:17:15;;;;;;;3.75;2.28;;;;;;;9.82;35.74;99394.63;4887535;29;20048;-49
2021/12/01 08:19:40;;;;;;;5.43;3.05;;;;;;;10.16;35.19;99393.50;4894368;29;20041;-49
2021/12/01 08:22:09;;;;;;;3.15;2.10;;;;;;;10.43;34.96;99401.44;4894396;29;20035;-49
2021/12/01 08:24:34;;;;;;;4.13;2.33;;;;;;;10.06;34.50;99398.47;4894763;29;20112;-49
2021/12/01 08:27:00;;;;;;;4.50;2.28;;;;;;;9.82;35.36;99402.59;4894746;29;20082;-49
2021/12/01 08:29:25;;;;;;;3.15;1.83;;;;;;;10.05;34.94;99401.31;4894681;29;20132;-51
2021/12/01 08:31:50;;;;;;;3.72;1.85;;;;;;;10.62;33.93;99412.22;4894858;29;20032;-49
2021/12/01 08:34:16;;;;;;;2.30;1.90;;;;;;;10.98;34.14;99408.94;4894201;29;20502;-52
2021/12/01 08:36:41;;;;;;;3.15;2.17;;;;;;;11.07;34.01;99398.88;4893813;29;20032;-53
2021/12/01 08:39:07;;;;;;;4.28;2.60;;;;;;;10.85;34.22;99401.88;4894535;29;20028;-49
2021/12/01 08:41:32;;;;;;;5.53;2.45;;;;;;;11.10;34.53;99409.91;4894645;29;20158;-49
2021/12/01 08:43:58;;;;;;;3.20;2.10;;;;;;;11.20;33.73;99413.97;4894360;29;20033;-51
2021/12/01 08:46:23;;;;;;;2.70;1.95;;;;;;;11.50;33.94;99416.81;4894347;29;20032;-50
2021/12/01 08:48:49;;;;;;;5.00;2.10;;;;;;;10.71;34.14;99422.41;4894606;29;20033;-52
2021/12/01 08:51:14;;;;;;;2.95;2.00;;;;;;;10.73;34.06;99415.03;4894586;29;20032;-52
2021/12/01 08:53:41;;;;;;;2.85;2.08;;;;;;;11.01;34.37;99415.72;4894633;29;20068;-50
2021/12/01 08:56:07;;;;;;;7.22;2.38;;;;;;;10.98;35.00;99414.28;4870273;29;20127;-49
2021/12/01 08:58:32;;;;;;;4.10;1.98;;;;;;;11.01;34.73;99411.19;4888794;29;20566;-52
2021/12/01 09:00:58;;;;;;;2.60;2.03;;;;;;;11.03;34.76;99401.16;4887888;29;20404;-50
2021/12/01 09:03:23;;;;;;;4.07;2.10;;;;;;;10.97;34.57;99396.69;4884183;29;20442;-49
2021/12/01 09:05:49;;;;;;;3.30;1.90;;;;;;;11.30;33.85;99388.44;4869691;29;20469;-52
2021/12/01 09:08:16;;;;;;;3.75;1.80;;;;;;;11.54;34.19;99389.50;4890209;29;20025;-52
2021/12/01 09:10:41;;;;;;;2.70;1.90;;;;;;;12.02;33.95;99385.38;4888978;29;20108;-52
2021/12/01 09:13:07;;;;;;;12.65;7.05;;;;;;;11.62;33.66;99385.75;4886988;29;20024;-52
2021/12/01 09:15:33;;;;;;;5.72;3.40;;;;;;;11.89;33.59;99385.47;4858305;29;20112;-51
2021/12/01 09:17:59;;;;;;;3.78;1.95;;;;;;;11.92;34.16;99382.41;4886546;29;20025;-52
2021/12/01 09:20:25;;;;;;;2.55;1.58;;;;;;;11.68;33.62;99386.72;4888591;29;20479;-51
2021/12/01 09:22:50;;;;;;;4.80;2.05;;;;;;;11.72;34.11;99394.03;4889149;29;20788;-50
2021/12/01 09:25:16;;;;;;;2.45;1.73;;;;;;;11.58;34.37;99394.41;4886067;29;20025;-51
2021/12/01 09:27:44;;;;;;;3.55;1.85;;;;;;;11.36;35.29;99394.75;4890118;29;20044;-52
2021/12/01 09:30:10;;;;;;;5.18;1.80;;;;;;;11.38;35.27;99387.38;4893366;29;20508;-53
2021/12/01 09:32:37;;;;;;;2.30;1.65;;;;;;;11.14;35.74;99386.34;4894054;29;20036;-50
2021/12/01 09:35:04;;;;;;;2.75;1.58;;;;;;;10.91;36.44;99382.38;4893006;29;20164;-52
2021/12/01 09:37:29;;;;;;;2.70;1.40;;;;;;;11.07;36.26;99377.56;4893715;29;20044;-50
2021/12/01 09:39:55;;;;;;;3.15;1.60;;;;;;;11.34;36.37;99376.31;4893846;29;20021;-51
2021/12/01 09:42:20;;;;;;;1.98;1.40;;;;;;;11.28;35.30;99363.88;4893646;29;20423;-53
2021/12/01 09:44:47;;;;;;;2.03;1.60;;;;;;;11.39;35.83;99370.38;4877116;29;20028;-49
2021/12/01 09:47:15;;;;;;;2.28;1.35;;;;;;;11.58;35.03;99370.41;4877304;29;20415;-51
2021/12/01 09:49:41;;;;;;;2.65;1.65;;;;;;;11.73;35.52;99361.03;4896973;29;20033;-53
2021/12/01 09:52:08;;;;;;;4.30;1.90;;;;;;;12.01;34.77;99357.06;4897017;29;20028;-52
2021/12/01 09:54:34;;;;;;;3.30;1.98;;;;;;;12.33;34.03;99351.56;4896989;29;20448;-51
2021/12/01 09:56:59;;;;;;;1.92;1.50;;;;;;;12.17;34.03;99347.66;4896688;29;20051;-51
2021/12/01 09:59:25;;;;;;;2.47;1.45;;;;;;;12.17;34.27;99349.53;4896625;29;20437;-51
2021/12/01 10:01:50;;;;;;;1.73;1.10;;;;;;;11.52;35.37;99340.94;4896765;29;20036;-50
2021/12/01 10:04:16;;;;;;;1.73;1.27;;;;;;;11.40;35.84;99332.00;4891183;29;20138;-52
2021/12/01 10:06:41;;;;;;;2.38;1.60;;;;;;;11.14;36.62;99335.72;4887535;29;20039;-52
2021/12/01 10:09:07;;;;;;;2.85;2.10;;;;;;;10.85;37.18;99340.66;4883470;29;20028;-53
2021/12/01 10:11:38;;;;;;;3.67;1.73;;;;;;;11.20;36.60;99336.72;4875592;29;20064;-52
2021/12/01 10:14:17;;;;;;;5.40;1.80;;;;;;;11.53;35.96;99337.22;4886157;29;20362;-52
2021/12/01 10:16:43;;;;;;;3.58;1.90;;;;;;;11.24;36.81;99322.72;4890196;29;20057;-49
2021/12/01 10:19:15;;;;;;;2.33;1.80;;;;;;;11.40;36.48;99329.34;4887325;29;20041;-50
2021/12/01 10:21:48;;;;;;;2.95;1.70;;;;;;;11.46;36.06;99332.97;4889339;29;20558;-52
2021/12/01 10:24:27;;;;;;;3.53;1.70;;;;;;;11.61;36.51;99337.97;4882981;29;20040;-51
2021/12/01 10:26:54;;;;;;;2.60;1.67;;;;;;;11.89;36.28;99343.66;4896784;29;20092;-48
2021/12/01 10:29:30;;;;;;;4.30;1.77;;;;;;;11.88;36.17;99346.50;4896625;29;20569;-51
2021/12/01 10:32:12;;;;;;;2.20;1.60;;;;;;;12.28;34.89;99344.25;4896226;29;20040;-49
2021/12/01 10:34:40;;;;;;;2.72;1.90;;;;;;;12.26;36.18;99332.16;4881963;29;20045;-48
2021/12/01 10:37:23;;;;;;;3.22;1.88;;;;;;;12.41;36.10;99337.09;4895617;29;20043;-51
2021/12/01 10:40:10;;;;;;;11.95;5.43;;;;;;;12.07;36.16;99336.69;4895660;29;20076;-51
2021/12/01 10:43:07;;;;;;;2.20;1.60;;;;;;;12.03;36.64;99331.03;4880753;29;20438;-49
2021/12/01 10:45:36;;;;;;;3.72;1.90;;;;;;;11.93;36.16;99323.50;4895621;29;20044;-49
2021/12/01 10:48:03;;;;;;;2.60;1.65;;;;;;;12.06;36.79;99327.88;4895865;29;20052;-52
2021/12/01 10:50:30;;;;;;;4.13;2.05;;;;;;;12.50;35.91;99328.56;4881094;29;20107;-50
2021/12/01 10:53:07;;;;;;;3.47;2.10;;;;;;;12.57;35.82;99338.34;4896208;29;20441;-49
2021/12/01 10:55:32;;;;;;;3.88;1.73;;;;;;;12.64;35.61;99331.03;4895628;29;20124;-50
2021/12/01 10:58:01;;;;;;;3.13;1.70;;;;;;;12.36;36.03;99321.78;4895575;29;20116;-51
2021/12/01 11:00:29;;;;;;;4.47;1.60;;;;;;;12.70;35.52;99314.94;4895218;29;20486;-51
2021/12/01 11:03:15;;;;;;;2.67;1.80;;;;;;;13.16;35.24;99323.28;4882802;29;20519;-52
2021/12/01 11:05:42;;;;;;;3.25;1.60;;;;;;;13.20;34.94;99321.78;4896039;29;20441;-52
2021/12/01 11:08:18;;;;;;;2.35;1.63;;;;;;;13.14;35.20;99312.03;4878868;29;20461;-51
2021/12/01 11:10:45;;;;;;;2.92;1.77;;;;;;;13.16;35.49;99306.47;4895440;29;20025;-52
2021/12/01 11:13:11;;;;;;;2.75;1.65;;;;;;;13.11;35.34;99312.47;4895995;29;20063;-48
2021/12/01 11:15:41;;;;;;;3.25;1.60;;;;;;;12.77;35.68;99304.16;4879024;29;20169;-53
2021/12/01 11:18:08;;;;;;;2.78;1.73;;;;;;;13.10;35.49;99313.53;4895335;29;20025;-52
2021/12/01 11:20:51;;;;;;;3.67;1.50;;;;;;;12.62;36.50;99307.28;4895380;29;20035;-48
2021/12/01 11:23:16;;;;;;;3.13;1.77;;;;;;;12.60;36.36;99300.50;4895499;29;20028;-52
2021/12/01 11:25:43;;;;;;;3.72;1.90;;;;;;;12.79;36.21;99303.94;4893892;29;20115;-51
2021/12/01 11:28:09;;;;;;;4.30;2.33;;;;;;;12.82;36.32;99301.63;4894797;29;20506;-52
2021/12/01 11:30:36;;;;;;;2.47;1.52;;;;;;;12.68;36.24;99274.31;4895215;29;20064;-52
2021/12/01 11:33:01;;;;;;;2.67;1.63;;;;;;;12.78;35.85;99289.78;4878154;29;20032;-51
2021/12/01 11:35:27;;;;;;;1.80;1.45;;;;;;;13.02;35.61;99287.97;4894758;29;20057;-49
2021/12/01 11:37:57;;;;;;;2.92;1.60;;;;;;;13.09;35.57;99291.31;4895014;29;20434;-50
2021/12/01 11:40:23;;;;;;;;;;;;;;;12.96;35.59;99293.41;4879146;29;20522;-51
2021/12/01 11:42:48;;;;;;;2.40;1.67;;;;;;;13.43;35.45;99293.47;4893536;29;19971;-52
2021/12/01 11:45:14;;;;;;;3.63;1.63;;;;;;;12.97;35.63;99295.06;4894952;29;20076;-51
2021/12/01 11:47:46;;;;;;;4.95;1.75;;;;;;;12.82;36.68;99282.13;4894960;29;20493;-50